createdAt,value
2022-12-19T05:35:05.594Z,5.90
2022-12-19T05:40:08.182Z,6.00
2022-12-19T05:45:10.889Z,6.10
2022-12-19T05:50:17.546Z,6.10
2022-12-19T05:55:34.232Z,6.10
2022-12-19T06:00:39.248Z,6.30
2022-12-19T06:05:48.880Z,6.30
2022-12-19T06:10:50.707Z,6.40
2022-12-19T06:15:58.262Z,6.30
2022-12-19T06:21:02.075Z,6.40
2022-12-19T06:26:16.878Z,6.40
2022-12-19T06:31:22.605Z,6.50
2022-12-19T06:36:31.483Z,6.50
2022-12-19T06:41:51.928Z,6.60
2022-12-19T06:46:53.921Z,6.60
2022-12-19T06:51:55.803Z,6.60
2022-12-19T06:56:59.164Z,6.70
2022-12-19T07:02:28.614Z,6.70
2022-12-19T07:07:30.785Z,6.80
2022-12-19T07:12:35.806Z,6.80
2022-12-19T07:17:40.482Z,6.80
2022-12-19T07:22:42.698Z,6.80
2022-12-19T07:27:45.151Z,6.90
2022-12-19T07:32:46.960Z,6.90
2022-12-19T07:37:49.715Z,7.00
2022-12-19T07:42:52.070Z,7.00
2022-12-19T07:47:53.959Z,7.00
2022-12-19T07:52:55.890Z,7.00
2022-12-19T07:57:57.754Z,7.00
2022-12-19T08:02:59.999Z,7.10
2022-12-19T08:08:01.887Z,7.10
2022-12-19T08:13:03.791Z,7.10
2022-12-19T08:18:05.734Z,7.20
2022-12-19T08:23:07.572Z,7.20
2022-12-19T08:28:09.416Z,7.10
2022-12-19T08:33:13.873Z,7.20
2022-12-19T08:38:15.827Z,7.30
2022-12-19T08:43:17.661Z,7.30
2022-12-19T08:48:19.480Z,7.40
2022-12-19T08:53:26.277Z,7.30
2022-12-19T08:58:29.443Z,7.30
2022-12-19T09:03:44.932Z,7.40
2022-12-19T09:09:00.264Z,7.40
2022-12-19T09:14:02.769Z,7.40
2022-12-19T09:19:04.575Z,7.40
2022-12-19T09:24:08.031Z,7.40
2022-12-19T09:29:19.682Z,7.50
2022-12-19T09:34:33.114Z,7.50
2022-12-19T09:39:42.131Z,7.50
2022-12-19T09:44:52.953Z,7.50
2022-12-19T09:49:55.214Z,7.60
2022-12-19T09:55:17.561Z,7.60
2022-12-19T10:00:21.598Z,7.60
2022-12-19T10:07:09.303Z,7.70
2022-12-19T10:12:46.001Z,7.70
2022-12-19T10:17:08.851Z,7.70
2022-12-19T10:22:36.477Z,7.80
2022-12-19T10:28:13.797Z,7.90
2022-12-19T10:33:24.269Z,7.90
2022-12-19T10:38:38.930Z,8.00
2022-12-19T10:44:10.434Z,8.00
2022-12-19T10:49:21.864Z,8.10
2022-12-19T10:54:33.078Z,8.10
2022-12-19T10:59:35.322Z,8.10
2022-12-19T11:04:39.383Z,8.20
2022-12-19T11:09:53.831Z,8.20
2022-12-19T11:20:12.693Z,8.20
2022-12-19T11:29:18.197Z,8.20
2022-12-19T11:30:26.146Z,8.30
2022-12-19T11:36:53.055Z,8.30
2022-12-19T11:42:13.732Z,8.30
2022-12-19T11:47:32.824Z,8.40
2022-12-19T11:58:10.380Z,8.40
2022-12-19T12:03:12.175Z,8.40
2022-12-19T12:10:46.065Z,8.50
2022-12-19T12:22:07.729Z,8.50
2022-12-19T12:31:22.237Z,8.60
2022-12-19T12:31:43.908Z,8.60
2022-12-19T12:35:42.372Z,8.60
2022-12-19T12:42:33.102Z,8.70
2022-12-19T12:47:36.257Z,8.80
2022-12-19T12:52:38.017Z,8.90
2022-12-19T12:57:39.872Z,8.90
2022-12-19T13:02:43.028Z,9.00
2022-12-19T13:07:55.022Z,9.00
2022-12-19T13:12:59.809Z,9.00
2022-12-19T13:18:11.492Z,9.00
2022-12-19T13:23:38.239Z,9.00
2022-12-19T13:28:41.682Z,9.00
2022-12-19T13:33:54.798Z,9.00
2022-12-19T13:40:02.200Z,9.00
2022-12-19T13:44:22.110Z,9.00
2022-12-19T13:49:31.794Z,9.10
2022-12-19T13:54:48.991Z,9.00
2022-12-19T13:59:59.960Z,9.00
2022-12-19T14:05:03.058Z,9.00
2022-12-19T14:11:39.486Z,9.00
2022-12-19T14:15:40.667Z,9.10
2022-12-19T14:22:04.808Z,9.20
2022-12-19T14:28:18.038Z,9.20
2022-12-19T14:31:29.414Z,9.20
2022-12-19T14:36:33.025Z,9.20
2022-12-19T14:42:01.753Z,9.20
2022-12-19T14:52:34.426Z,9.20
2022-12-19T14:54:41.910Z,9.20
2022-12-19T14:58:50.730Z,9.20
2022-12-19T15:03:33.039Z,9.20
2022-12-19T15:10:57.625Z,9.20
2022-12-19T15:14:57.368Z,9.20
2022-12-19T15:19:20.594Z,9.20
2022-12-19T15:24:22.483Z,9.30
2022-12-19T15:29:26.239Z,9.30
2022-12-19T15:34:37.369Z,9.30
2022-12-19T15:39:43.068Z,9.30
2022-12-19T15:44:45.955Z,9.40
2022-12-19T15:49:50.092Z,9.30
2022-12-19T15:54:51.986Z,9.40
2022-12-19T15:59:53.970Z,9.30
2022-12-19T16:05:03.488Z,9.30
2022-12-19T16:10:06.960Z,9.30
2022-12-19T16:15:27.662Z,9.30
2022-12-19T16:20:31.974Z,9.30
2022-12-19T16:25:41.277Z,9.30
2022-12-19T18:01:32.953Z,9.30
2022-12-19T18:06:44.278Z,9.30
2022-12-19T18:12:00.430Z,9.30
2022-12-19T19:34:25.030Z,9.10
2022-12-19T19:57:44.282Z,9.10
2022-12-19T20:03:34.559Z,9.00
2022-12-19T21:09:57.188Z,8.80
2022-12-19T21:16:12.623Z,8.80
2022-12-19T21:28:31.695Z,8.80
2022-12-19T22:22:38.629Z,8.80
2022-12-19T22:28:22.160Z,8.80
2022-12-19T23:29:04.076Z,9.00
2022-12-19T23:34:16.713Z,9.00
2022-12-19T23:39:31.153Z,9.00
2022-12-19T23:44:38.160Z,9.10
2022-12-19T23:49:50.708Z,9.00
